Terminal Aerodrome Forecast
Issued by NWS

Home | Current Version | Previous Version | Text Only | Print | Product List | Glossary On
Versions: 1 2 3 4 5 6 7 8 9 10 11 12
647
FTPA31 PHFO 122344
TAFHMK
TAF
PHMK 122344Z 1300/1324 04011G18KT P6SM SKC
     FM130500 04008KT P6SM FEW025
     FM132100 04013G20KT P6SM FEW030
      AMD NOT SKED=

USA.gov is the U.S. government's official web portal to all federal, state and local government web resources and services.